PWSweather.com
Personal Weather Stations
Station Observations
RIORANCHO
Corrales Heights, Rio Rancho, NM 87124

Corrales HeightsRio Rancho, NM 87124

Lat: 35.241928, Lon: -106.647095

Elevation: 5297

Station Type: Davis Vantage Pro 2 Plus

http://www.weatherriorancho.com

High Low Average
Temperature 55.5°F13.1°C 31.5°F-0.3°C 43.0°F6.1°C
Dew Point 29.3°F-1.5°C 6.0°F-14.4°C 16.2°F-8.8°C
Winds 16.1 mph 25.9 kmh Calm Calm 2.0 mph SW3.2 kmh SW
Wind Gusts 20.7 mph33.3 kmh -- 3.0 mph4.8 kmh
Humidity 49% 23% 34%
Pressure 29.94 in1013.9 mb 29.88 in1011.9 mb -
Precipitation 0.00 in0.0 mm - -
Hour Temp Dew Point Humidity Winds Wind Gusts Pressure Precip Precip Rate Daily Precip Total
12:00 AM 42.3°F5.7°C 5.0°F-15.0°C 21% Calm Calm -- 29.89 in1012.2 mb - 0.00 in0.0 mm 0.00 in0.0 mm
12:10 AM 41.7°F5.4°C 4.6°F-15.2°C 21% Calm Calm -- 29.88 in1011.9 mb - 0.00 in0.0 mm 0.00 in0.0 mm
12:20 AM 41.5°F5.3°C 5.4°F-14.8°C 22% Calm Calm -- 29.88 in1011.9 mb - 0.00 in0.0 mm 0.00 in0.0 mm
12:30 AM 41.2°F5.1°C 6.1°F-14.4°C 23% Calm Calm -- 29.88 in1011.9 mb - 0.00 in0.0 mm 0.00 in0.0 mm
12:40 AM 40.8°F4.9°C 5.8°F-14.6°C 23% Calm Calm -- 29.88 in1011.9 mb - 0.00 in0.0 mm 0.00 in0.0 mm
12:50 AM 40.7°F4.8°C 6.6°F-14.1°C 24% Calm Calm -- 29.88 in1011.9 mb - 0.00 in0.0 mm 0.00 in0.0 mm
01:00 AM 40.6°F4.8°C 6.6°F-14.1°C 24% Calm Calm -- 29.88 in1011.9 mb - 0.00 in0.0 mm 0.00 in0.0 mm
01:10 AM 40.4°F4.7°C 7.3°F-13.7°C 25% Calm Calm -- 29.88 in1011.9 mb - 0.00 in0.0 mm 0.00 in0.0 mm
01:20 AM 40.1°F4.5°C 7.0°F-13.9°C 25% Calm Calm -- 29.88 in1011.9 mb - 0.00 in0.0 mm 0.00 in0.0 mm
01:30 AM 39.2°F4.0°C 7.1°F-13.8°C 26% Calm Calm 2.3 mph3.7 kmh 29.88 in1011.9 mb - 0.00 in0.0 mm 0.00 in0.0 mm
01:40 AM 41.1°F5.1°C 7.0°F-13.9°C 24% Calm Calm 2.3 mph3.7 kmh 29.89 in1012.2 mb - 0.00 in0.0 mm 0.00 in0.0 mm
01:50 AM 41.4°F5.2°C 7.3°F-13.7°C 24% Calm Calm -- 29.89 in1012.2 mb - 0.00 in0.0 mm 0.00 in0.0 mm
02:00 AM 40.9°F4.9°C 6.8°F-14.0°C 24% 1.2 mph SE1.9 kmh SE 3.5 mph5.6 kmh 29.89 in1012.2 mb - 0.00 in0.0 mm 0.00 in0.0 mm
02:10 AM 41.9°F5.5°C 6.7°F-14.1°C 23% 1.2 mph SSW1.9 kmh SSW 3.5 mph5.6 kmh 29.89 in1012.2 mb - 0.00 in0.0 mm 0.00 in0.0 mm
02:20 AM 41.0°F5.0°C 6.9°F-13.9°C 24% Calm Calm -- 29.90 in1012.5 mb - 0.00 in0.0 mm 0.00 in0.0 mm
02:30 AM 40.4°F4.7°C 6.4°F-14.2°C 24% Calm Calm 1.2 mph1.9 kmh 29.90 in1012.5 mb - 0.00 in0.0 mm 0.00 in0.0 mm
02:40 AM 39.9°F4.4°C 6.8°F-14.0°C 25% Calm Calm -- 29.90 in1012.5 mb - 0.00 in0.0 mm 0.00 in0.0 mm
02:50 AM 40.0°F4.4°C 6.0°F-14.4°C 24% 1.2 mph WSW1.9 kmh WSW 3.5 mph5.6 kmh 29.90 in1012.5 mb - 0.00 in0.0 mm 0.00 in0.0 mm
03:00 AM 40.4°F4.7°C 6.4°F-14.2°C 24% Calm Calm 2.3 mph3.7 kmh 29.90 in1012.5 mb - 0.00 in0.0 mm 0.00 in0.0 mm
03:10 AM 39.4°F4.1°C 6.4°F-14.2°C 25% Calm Calm -- 29.91 in1012.9 mb - 0.00 in0.0 mm 0.00 in0.0 mm
03:20 AM 38.7°F3.7°C 6.7°F-14.1°C 26% Calm Calm -- 29.91 in1012.9 mb - 0.00 in0.0 mm 0.00 in0.0 mm
03:30 AM 38.3°F3.5°C 6.3°F-14.3°C 26% Calm Calm -- 29.91 in1012.9 mb - 0.00 in0.0 mm 0.00 in0.0 mm
03:40 AM 37.9°F3.3°C 6.0°F-14.4°C 26% Calm Calm -- 29.91 in1012.9 mb - 0.00 in0.0 mm 0.00 in0.0 mm
03:50 AM 37.3°F2.9°C 6.3°F-14.3°C 27% Calm Calm -- 29.91 in1012.9 mb - 0.00 in0.0 mm 0.00 in0.0 mm
04:00 AM 36.1°F2.3°C 6.1°F-14.4°C 28% Calm Calm -- 29.91 in1012.9 mb - 0.00 in0.0 mm 0.00 in0.0 mm
04:10 AM 35.8°F2.1°C 6.6°F-14.1°C 29% Calm Calm -- 29.91 in1012.9 mb - 0.00 in0.0 mm 0.00 in0.0 mm
04:20 AM 35.1°F1.7°C 6.8°F-14.0°C 30% Calm Calm -- 29.91 in1012.9 mb - 0.00 in0.0 mm 0.00 in0.0 mm
04:30 AM 34.6°F1.4°C 7.0°F-13.9°C 31% Calm Calm -- 29.91 in1012.9 mb - 0.00 in0.0 mm 0.00 in0.0 mm
04:40 AM 33.9°F1.1°C 7.8°F-13.4°C 33% Calm Calm -- 29.91 in1012.9 mb - 0.00 in0.0 mm 0.00 in0.0 mm
04:50 AM 33.5°F0.8°C 8.1°F-13.3°C 34% Calm Calm 1.2 mph1.9 kmh 29.91 in1012.9 mb - 0.00 in0.0 mm 0.00 in0.0 mm
05:00 AM 33.2°F0.7°C 8.5°F-13.1°C 35% Calm Calm -- 29.91 in1012.9 mb - 0.00 in0.0 mm 0.00 in0.0 mm
05:10 AM 33.2°F0.7°C 9.7°F-12.4°C 37% Calm Calm 2.3 mph3.7 kmh 29.91 in1012.9 mb - 0.00 in0.0 mm 0.00 in0.0 mm
05:20 AM 33.7°F0.9°C 10.1°F-12.2°C 37% Calm Calm 1.2 mph1.9 kmh 29.90 in1012.5 mb - 0.00 in0.0 mm 0.00 in0.0 mm
05:30 AM 33.7°F0.9°C 10.7°F-11.8°C 38% Calm Calm 1.2 mph1.9 kmh 29.90 in1012.5 mb - 0.00 in0.0 mm 0.00 in0.0 mm
05:40 AM 33.7°F0.9°C 11.3°F-11.5°C 39% Calm Calm -- 29.90 in1012.5 mb - 0.00 in0.0 mm 0.00 in0.0 mm
05:50 AM 33.4°F0.8°C 11.6°F-11.3°C 40% Calm Calm 1.2 mph1.9 kmh 29.90 in1012.5 mb - 0.00 in0.0 mm 0.00 in0.0 mm
06:00 AM 33.4°F0.8°C 11.6°F-11.3°C 40% Calm Calm -- 29.91 in1012.9 mb - 0.00 in0.0 mm 0.00 in0.0 mm
06:10 AM 33.0°F0.6°C 11.8°F-11.2°C 41% Calm Calm -- 29.91 in1012.9 mb - 0.00 in0.0 mm 0.00 in0.0 mm
06:20 AM 32.3°F0.2°C 11.8°F-11.2°C 42% Calm Calm -- 29.91 in1012.9 mb - 0.00 in0.0 mm 0.00 in0.0 mm
06:30 AM 32.1°F0.1°C 11.6°F-11.3°C 42% Calm Calm 2.3 mph3.7 kmh 29.91 in1012.9 mb - 0.00 in0.0 mm 0.00 in0.0 mm
06:40 AM 31.8°F-0.1°C 11.8°F-11.2°C 43% Calm Calm 1.2 mph1.9 kmh 29.91 in1012.9 mb - 0.00 in0.0 mm 0.00 in0.0 mm
06:50 AM 31.5°F-0.3°C 11.5°F-11.4°C 43% Calm Calm 1.2 mph1.9 kmh 29.91 in1012.9 mb - 0.00 in0.0 mm 0.00 in0.0 mm
07:00 AM 31.5°F-0.3°C 12.6°F-10.8°C 45% Calm Calm 3.5 mph5.6 kmh 29.91 in1012.9 mb - 0.00 in0.0 mm 0.00 in0.0 mm
07:10 AM 31.9°F-0.1°C 11.9°F-11.2°C 43% 2.3 mph WNW3.7 kmh WNW 4.6 mph7.4 kmh 29.91 in1012.9 mb - 0.00 in0.0 mm 0.00 in0.0 mm
07:20 AM 32.0°F0.0°C 12.5°F-10.8°C 44% 2.3 mph W3.7 kmh W 3.5 mph5.6 kmh 29.91 in1012.9 mb - 0.00 in0.0 mm 0.00 in0.0 mm
07:30 AM 31.9°F-0.1°C 12.4°F-10.9°C 44% Calm Calm -- 29.92 in1013.2 mb - 0.00 in0.0 mm 0.00 in0.0 mm
07:40 AM 31.8°F-0.1°C 12.8°F-10.7°C 45% Calm Calm 2.3 mph3.7 kmh 29.92 in1013.2 mb - 0.00 in0.0 mm 0.00 in0.0 mm
07:50 AM 31.8°F-0.1°C 13.3°F-10.4°C 46% Calm Calm 1.2 mph1.9 kmh 29.92 in1013.2 mb - 0.00 in0.0 mm 0.00 in0.0 mm
08:00 AM 31.7°F-0.2°C 13.7°F-10.2°C 47% Calm Calm -- 29.92 in1013.2 mb - 0.00 in0.0 mm 0.00 in0.0 mm
08:10 AM 31.7°F-0.2°C 14.2°F-9.9°C 48% Calm Calm -- 29.92 in1013.2 mb - 0.00 in0.0 mm 0.00 in0.0 mm
08:20 AM 32.1°F0.1°C 15.1°F-9.4°C 49% Calm Calm -- 29.93 in1013.5 mb - 0.00 in0.0 mm 0.00 in0.0 mm
08:30 AM 33.0°F0.6°C 14.9°F-9.5°C 47% Calm Calm -- 29.93 in1013.5 mb - 0.00 in0.0 mm 0.00 in0.0 mm
08:40 AM 34.8°F1.6°C 16.6°F-8.6°C 47% Calm Calm -- 29.93 in1013.5 mb - 0.00 in0.0 mm 0.00 in0.0 mm
08:50 AM 36.5°F2.5°C 17.1°F-8.3°C 45% Calm Calm -- 29.93 in1013.5 mb - 0.00 in0.0 mm 0.00 in0.0 mm
09:00 AM 37.5°F3.1°C 17.0°F-8.3°C 43% Calm Calm -- 29.94 in1013.9 mb - 0.00 in0.0 mm 0.00 in0.0 mm
09:10 AM 38.8°F3.8°C 17.1°F-8.3°C 41% Calm Calm -- 29.94 in1013.9 mb - 0.00 in0.0 mm 0.00 in0.0 mm
09:20 AM 40.2°F4.6°C 17.7°F-7.9°C 40% Calm Calm -- 29.94 in1013.9 mb - 0.00 in0.0 mm 0.00 in0.0 mm
09:30 AM 41.8°F5.4°C 16.1°F-8.8°C 35% Calm Calm -- 29.94 in1013.9 mb - 0.00 in0.0 mm 0.00 in0.0 mm
09:40 AM 41.9°F5.5°C 16.9°F-8.4°C 36% Calm Calm -- 29.94 in1013.9 mb - 0.00 in0.0 mm 0.00 in0.0 mm
09:50 AM 44.0°F6.7°C 18.7°F-7.4°C 36% Calm Calm -- 29.94 in1013.9 mb - 0.00 in0.0 mm 0.00 in0.0 mm
10:00 AM 45.6°F7.6°C 18.8°F-7.3°C 34% Calm Calm -- 29.94 in1013.9 mb - 0.00 in0.0 mm 0.00 in0.0 mm
10:10 AM 45.5°F7.5°C 18.7°F-7.4°C 34% Calm Calm -- 29.94 in1013.9 mb - 0.00 in0.0 mm 0.00 in0.0 mm
10:20 AM 45.7°F7.6°C 18.9°F-7.3°C 34% Calm Calm -- 29.94 in1013.9 mb - 0.00 in0.0 mm 0.00 in0.0 mm
10:30 AM 46.8°F8.2°C 19.9°F-6.7°C 34% Calm Calm -- 29.93 in1013.5 mb - 0.00 in0.0 mm 0.00 in0.0 mm
10:40 AM 47.5°F8.6°C 20.5°F-6.4°C 34% Calm Calm -- 29.93 in1013.5 mb - 0.00 in0.0 mm 0.00 in0.0 mm
10:50 AM 48.4°F9.1°C 22.0°F-5.6°C 35% Calm Calm 1.2 mph1.9 kmh 29.93 in1013.5 mb - 0.00 in0.0 mm 0.00 in0.0 mm
11:00 AM 49.3°F9.6°C 22.1°F-5.5°C 34% Calm Calm -- 29.93 in1013.5 mb - 0.00 in0.0 mm 0.00 in0.0 mm
11:10 AM 49.5°F9.7°C 22.2°F-5.4°C 34% Calm Calm -- 29.93 in1013.5 mb - 0.00 in0.0 mm 0.00 in0.0 mm
11:20 AM 49.4°F9.7°C 22.2°F-5.4°C 34% Calm Calm -- 29.93 in1013.5 mb - 0.00 in0.0 mm 0.00 in0.0 mm
11:30 AM 51.2°F10.7°C 23.0°F-5.0°C 33% Calm Calm 3.5 mph5.6 kmh 29.92 in1013.2 mb - 0.00 in0.0 mm 0.00 in0.0 mm
11:40 AM 51.5°F10.8°C 22.6°F-5.2°C 32% Calm Calm -- 29.92 in1013.2 mb - 0.00 in0.0 mm 0.00 in0.0 mm
11:50 AM 51.3°F10.7°C 21.6°F-5.8°C 31% Calm Calm 2.3 mph3.7 kmh 29.92 in1013.2 mb - 0.00 in0.0 mm 0.00 in0.0 mm
12:00 PM 51.6°F10.9°C 21.9°F-5.6°C 31% Calm Calm 1.2 mph1.9 kmh 29.91 in1012.9 mb - 0.00 in0.0 mm 0.00 in0.0 mm
12:10 PM 52.4°F11.3°C 21.8°F-5.7°C 30% 1.2 mph S1.9 kmh S 3.5 mph5.6 kmh 29.91 in1012.9 mb - 0.00 in0.0 mm 0.00 in0.0 mm
12:20 PM 51.4°F10.8°C 20.9°F-6.2°C 30% Calm Calm 9.2 mph14.8 kmh 29.91 in1012.9 mb - 0.00 in0.0 mm 0.00 in0.0 mm
12:30 PM 52.3°F11.3°C 22.6°F-5.2°C 31% Calm Calm 2.3 mph3.7 kmh 29.90 in1012.5 mb - 0.00 in0.0 mm 0.00 in0.0 mm
12:40 PM 52.5°F11.4°C 21.9°F-5.6°C 30% Calm Calm -- 29.90 in1012.5 mb - 0.00 in0.0 mm 0.00 in0.0 mm
12:50 PM 55.0°F12.8°C 22.5°F-5.3°C 28% 3.5 mph SW5.6 kmh SW 5.8 mph9.3 kmh 29.90 in1012.5 mb - 0.00 in0.0 mm 0.00 in0.0 mm
01:00 PM 55.2°F12.9°C 21.8°F-5.7°C 27% 1.2 mph NW1.9 kmh NW 3.5 mph5.6 kmh 29.89 in1012.2 mb - 0.00 in0.0 mm 0.00 in0.0 mm
01:10 PM 54.9°F12.7°C 22.4°F-5.3°C 28% 1.2 mph WNW1.9 kmh WNW 3.5 mph5.6 kmh 29.89 in1012.2 mb - 0.00 in0.0 mm 0.00 in0.0 mm
01:20 PM 55.5°F13.1°C 21.1°F-6.1°C 26% 1.2 mph NW1.9 kmh NW 4.6 mph7.4 kmh 29.89 in1012.2 mb - 0.00 in0.0 mm 0.00 in0.0 mm
01:30 PM 54.6°F12.6°C 20.4°F-6.4°C 26% 2.3 mph NW3.7 kmh NW 11.5 mph18.5 kmh 29.89 in1012.2 mb - 0.00 in0.0 mm 0.00 in0.0 mm
01:40 PM 51.1°F10.6°C 24.4°F-4.2°C 35% 9.2 mph WNW14.8 kmh WNW 15.0 mph24.1 kmh 29.89 in1012.2 mb - 0.00 in0.0 mm 0.00 in0.0 mm
01:50 PM 49.6°F9.8°C 25.0°F-3.9°C 38% 10.4 mph NW16.7 kmh NW 15.0 mph24.1 kmh 29.89 in1012.2 mb - 0.00 in0.0 mm 0.00 in0.0 mm
02:00 PM 50.5°F10.3°C 24.5°F-4.2°C 36% 9.2 mph NW14.8 kmh NW 16.1 mph25.9 kmh 29.89 in1012.2 mb - 0.00 in0.0 mm 0.00 in0.0 mm
02:10 PM 51.3°F10.7°C 23.8°F-4.6°C 34% 5.8 mph NW9.3 kmh NW 16.1 mph25.9 kmh 29.89 in1012.2 mb - 0.00 in0.0 mm 0.00 in0.0 mm
02:20 PM 51.4°F10.8°C 24.6°F-4.1°C 35% 11.5 mph NW18.5 kmh NW 16.1 mph25.9 kmh 29.89 in1012.2 mb - 0.00 in0.0 mm 0.00 in0.0 mm
02:30 PM 48.6°F9.2°C 29.3°F-1.5°C 47% 16.1 mph WNW25.9 kmh WNW 20.7 mph33.3 kmh 29.89 in1012.2 mb - 0.00 in0.0 mm 0.00 in0.0 mm
02:40 PM 48.9°F9.4°C 29.0°F-1.7°C 46% 12.7 mph WNW20.4 kmh WNW 16.1 mph25.9 kmh 29.90 in1012.5 mb - 0.00 in0.0 mm 0.00 in0.0 mm
02:50 PM 48.8°F9.3°C 28.4°F-2.0°C 45% 12.7 mph WNW20.4 kmh WNW 16.1 mph25.9 kmh 29.90 in1012.5 mb - 0.00 in0.0 mm 0.00 in0.0 mm
03:00 PM 48.5°F9.2°C 27.0°F-2.8°C 43% 8.1 mph W13.0 kmh W 13.8 mph22.2 kmh 29.90 in1012.5 mb - 0.00 in0.0 mm 0.00 in0.0 mm
03:10 PM 49.5°F9.7°C 26.1°F-3.3°C 40% 9.2 mph NW14.8 kmh NW 11.5 mph18.5 kmh 29.90 in1012.5 mb - 0.00 in0.0 mm 0.00 in0.0 mm
03:20 PM 50.3°F10.2°C 24.3°F-4.3°C 36% 8.1 mph WNW13.0 kmh WNW 11.5 mph18.5 kmh 29.90 in1012.5 mb - 0.00 in0.0 mm 0.00 in0.0 mm
03:30 PM 50.9°F10.5°C 23.5°F-4.7°C 34% 1.2 mph WSW1.9 kmh WSW 9.2 mph14.8 kmh 29.90 in1012.5 mb - 0.00 in0.0 mm 0.00 in0.0 mm
03:40 PM 51.3°F10.7°C 21.6°F-5.8°C 31% 6.9 mph WNW11.1 kmh WNW 16.1 mph25.9 kmh 29.90 in1012.5 mb - 0.00 in0.0 mm 0.00 in0.0 mm
03:50 PM 51.1°F10.6°C 21.4°F-5.9°C 31% 2.3 mph WSW3.7 kmh WSW 9.2 mph14.8 kmh 29.90 in1012.5 mb - 0.00 in0.0 mm 0.00 in0.0 mm
04:00 PM 51.3°F10.7°C 22.4°F-5.3°C 32% 3.5 mph W5.6 kmh W 9.2 mph14.8 kmh 29.90 in1012.5 mb - 0.00 in0.0 mm 0.00 in0.0 mm
04:10 PM 50.6°F10.3°C 22.5°F-5.3°C 33% Calm Calm 1.2 mph1.9 kmh 29.90 in1012.5 mb - 0.00 in0.0 mm 0.00 in0.0 mm
04:20 PM 51.0°F10.6°C 22.1°F-5.5°C 32% 1.2 mph SW1.9 kmh SW 2.3 mph3.7 kmh 29.90 in1012.5 mb - 0.00 in0.0 mm 0.00 in0.0 mm
04:30 PM 51.0°F10.6°C 22.1°F-5.5°C 32% 2.3 mph WSW3.7 kmh WSW 1.2 mph1.9 kmh 29.90 in1012.5 mb - 0.00 in0.0 mm 0.00 in0.0 mm
04:40 PM 50.1°F10.1°C 20.6°F-6.3°C 31% Calm Calm -- 29.90 in1012.5 mb - 0.00 in0.0 mm 0.00 in0.0 mm
04:50 PM 50.6°F10.3°C 21.8°F-5.7°C 32% Calm Calm 2.3 mph3.7 kmh 29.91 in1012.9 mb - 0.00 in0.0 mm 0.00 in0.0 mm
05:00 PM 51.0°F10.6°C 22.1°F-5.5°C 32% Calm Calm -- 29.91 in1012.9 mb - 0.00 in0.0 mm 0.00 in0.0 mm
05:10 PM 50.8°F10.4°C 22.7°F-5.2°C 33% 1.2 mph SW1.9 kmh SW 8.1 mph13.0 kmh 29.91 in1012.9 mb - 0.00 in0.0 mm 0.00 in0.0 mm
05:20 PM 50.4°F10.2°C 22.4°F-5.3°C 33% 3.5 mph WSW5.6 kmh WSW 9.2 mph14.8 kmh 29.91 in1012.9 mb - 0.00 in0.0 mm 0.00 in0.0 mm
05:30 PM 51.1°F10.6°C 22.3°F-5.4°C 32% Calm Calm -- 29.91 in1012.9 mb - 0.00 in0.0 mm 0.00 in0.0 mm
05:40 PM 50.1°F10.1°C 21.3°F-5.9°C 32% Calm Calm -- 29.92 in1013.2 mb - 0.00 in0.0 mm 0.00 in0.0 mm
05:50 PM 50.3°F10.2°C 20.7°F-6.3°C 31% Calm Calm 2.3 mph3.7 kmh 29.92 in1013.2 mb - 0.00 in0.0 mm 0.00 in0.0 mm
06:00 PM 50.4°F10.2°C 16.8°F-8.4°C 26% 1.2 mph WNW1.9 kmh WNW 5.8 mph9.3 kmh 29.92 in1013.2 mb - 0.00 in0.0 mm 0.00 in0.0 mm
06:10 PM 50.4°F10.2°C 16.8°F-8.4°C 26% 1.2 mph WNW1.9 kmh WNW 3.5 mph5.6 kmh 29.92 in1013.2 mb - 0.00 in0.0 mm 0.00 in0.0 mm
06:20 PM 50.5°F10.3°C 16.8°F-8.4°C 26% 4.6 mph W7.4 kmh W 11.5 mph18.5 kmh 29.93 in1013.5 mb - 0.00 in0.0 mm 0.00 in0.0 mm
06:30 PM 50.2°F10.1°C 16.6°F-8.6°C 26% 1.2 mph NW1.9 kmh NW 10.4 mph16.7 kmh 29.93 in1013.5 mb - 0.00 in0.0 mm 0.00 in0.0 mm
06:40 PM 49.9°F9.9°C 16.4°F-8.7°C 26% 5.8 mph WNW9.3 kmh WNW 11.5 mph18.5 kmh 29.94 in1013.9 mb - 0.00 in0.0 mm 0.00 in0.0 mm
06:50 PM 49.7°F9.8°C 15.2°F-9.3°C 25% 1.2 mph W1.9 kmh W 6.9 mph11.1 kmh 29.94 in1013.9 mb - 0.00 in0.0 mm 0.00 in0.0 mm
07:00 PM 49.3°F9.6°C 15.8°F-9.0°C 26% Calm Calm 3.5 mph5.6 kmh 29.95 in1014.2 mb - 0.00 in0.0 mm 0.00 in0.0 mm
07:10 PM 48.8°F9.3°C 14.5°F-9.7°C 25% Calm Calm -- 29.96 in1014.6 mb - 0.00 in0.0 mm 0.00 in0.0 mm
07:20 PM 48.4°F9.1°C 15.0°F-9.4°C 26% Calm Calm -- 29.96 in1014.6 mb - 0.00 in0.0 mm 0.00 in0.0 mm
07:30 PM 47.9°F8.8°C 14.6°F-9.7°C 26% Calm Calm -- 29.97 in1014.9 mb - 0.00 in0.0 mm 0.00 in0.0 mm
07:40 PM 47.3°F8.5°C 23.0°F-5.0°C 38% Calm Calm -- 29.97 in1014.9 mb - 0.00 in0.0 mm 0.00 in0.0 mm
07:50 PM 46.0°F7.8°C 20.5°F-6.4°C 36% Calm Calm -- 29.98 in1015.2 mb - 0.00 in0.0 mm 0.00 in0.0 mm
08:00 PM 45.6°F7.6°C 17.4°F-8.1°C 32% 2.3 mph NW3.7 kmh NW 1.2 mph1.9 kmh 29.98 in1015.2 mb - 0.00 in0.0 mm 0.00 in0.0 mm
08:10 PM 45.6°F7.6°C 18.1°F-7.7°C 33% 3.5 mph NW5.6 kmh NW 4.6 mph7.4 kmh 29.99 in1015.6 mb - 0.00 in0.0 mm 0.00 in0.0 mm
08:20 PM 45.2°F7.3°C 24.0°F-4.4°C 43% Calm Calm -- 29.99 in1015.6 mb - 0.00 in0.0 mm 0.00 in0.0 mm
08:30 PM 44.0°F6.7°C 27.5°F-2.5°C 52% Calm Calm 2.3 mph3.7 kmh 30.00 in1015.9 mb - 0.00 in0.0 mm 0.00 in0.0 mm
08:40 PM 42.3°F5.7°C 28.2°F-2.1°C 57% Calm Calm 1.2 mph1.9 kmh 30.00 in1015.9 mb - 0.00 in0.0 mm 0.00 in0.0 mm
08:50 PM 41.5°F5.3°C 28.7°F-1.8°C 60% Calm Calm 1.2 mph1.9 kmh 30.01 in1016.3 mb - 0.00 in0.0 mm 0.00 in0.0 mm
09:00 PM 41.1°F5.1°C 29.4°F-1.4°C 63% Calm Calm -- 30.02 in1016.6 mb - 0.00 in0.0 mm 0.00 in0.0 mm
09:10 PM 40.7°F4.8°C 29.8°F-1.2°C 65% Calm Calm 1.2 mph1.9 kmh 30.02 in1016.6 mb - 0.00 in0.0 mm 0.00 in0.0 mm
09:20 PM 40.5°F4.7°C 29.7°F-1.3°C 65% 1.2 mph SE1.9 kmh SE 2.3 mph3.7 kmh 30.02 in1016.6 mb - 0.00 in0.0 mm 0.00 in0.0 mm
09:30 PM 40.4°F4.7°C 29.6°F-1.3°C 65% Calm Calm 2.3 mph3.7 kmh 30.03 in1016.9 mb - 0.00 in0.0 mm 0.00 in0.0 mm
09:40 PM 40.0°F4.4°C 29.9°F-1.2°C 67% Calm Calm -- 30.04 in1017.3 mb - 0.00 in0.0 mm 0.00 in0.0 mm
09:50 PM 39.6°F4.2°C 29.9°F-1.2°C 68% 1.2 mph SE1.9 kmh SE 2.3 mph3.7 kmh 30.04 in1017.3 mb - 0.00 in0.0 mm 0.00 in0.0 mm
10:00 PM 39.3°F4.1°C 29.6°F-1.3°C 68% Calm Calm -- 30.04 in1017.3 mb - 0.00 in0.0 mm 0.00 in0.0 mm
10:10 PM 39.1°F3.9°C 29.8°F-1.2°C 69% Calm Calm -- 30.05 in1017.6 mb - 0.00 in0.0 mm 0.00 in0.0 mm
10:20 PM 38.9°F3.8°C 29.6°F-1.3°C 69% Calm Calm -- 30.05 in1017.6 mb - 0.00 in0.0 mm 0.00 in0.0 mm
10:30 PM 38.8°F3.8°C 29.8°F-1.2°C 70% Calm Calm -- 30.05 in1017.6 mb - 0.00 in0.0 mm 0.00 in0.0 mm
10:40 PM 38.7°F3.7°C 30.1°F-1.1°C 71% Calm Calm -- 30.06 in1017.9 mb - 0.00 in0.0 mm 0.00 in0.0 mm
10:50 PM 38.8°F3.8°C 30.2°F-1.0°C 71% Calm Calm -- 30.06 in1017.9 mb - 0.00 in0.0 mm 0.00 in0.0 mm
11:00 PM 38.7°F3.7°C 30.1°F-1.1°C 71% Calm Calm -- 30.06 in1017.9 mb - 0.00 in0.0 mm 0.00 in0.0 mm
11:10 PM 38.5°F3.6°C 30.3°F-0.9°C 72% Calm Calm -- 30.07 in1018.3 mb - 0.00 in0.0 mm 0.00 in0.0 mm
11:20 PM 37.9°F3.3°C 29.7°F-1.3°C 72% Calm Calm -- 30.07 in1018.3 mb - 0.00 in0.0 mm 0.00 in0.0 mm
11:30 PM 37.6°F3.1°C 29.4°F-1.4°C 72% Calm Calm -- 30.07 in1018.3 mb - 0.00 in0.0 mm 0.00 in0.0 mm
11:40 PM 37.2°F2.9°C 29.0°F-1.7°C 72% Calm Calm -- 30.07 in1018.3 mb - 0.00 in0.0 mm 0.00 in0.0 mm
11:50 PM 36.6°F2.6°C 28.1°F-2.2°C 71% Calm Calm -- 30.07 in1018.3 mb - 0.00 in0.0 mm 0.00 in0.0 mm